Terminal Aerodrome Forecast
Issued by NWS Nashville, TN

Home | Current Version | Previous Version | Text Only | Print | Product List | Glossary On
Versions: 1 2 3 4 5 6 7 8 9 10 11 12 13 14 15 16 17 18 19 20 21 22 23
000
FTUS44 KOHX 270500 RRA
TAFBNA
TAF
KBNA 270540Z 2706/2806 29010G20KT P6SM BKN020 OVC028
      TEMPO 2707/2711 6SM -RASN OVC010
     FM271100 32009KT P6SM OVC010
     FM271500 33008KT P6SM BKN030
     FM271900 33010KT P6SM SCT030
     FM280000 34006KT P6SM SKC=

USA.gov is the U.S. government's official web portal to all federal, state and local government web resources and services.